createdAt,value
2023-02-22T00:02:37.625Z,7.32
2023-02-22T00:05:45.219Z,7.93
2023-02-22T00:08:52.947Z,7.30
2023-02-22T00:11:56.488Z,12.47
2023-02-22T00:14:59.681Z,7.85
2023-02-22T00:18:03.827Z,8.43
2023-02-22T00:21:10.725Z,10.25
2023-02-22T00:24:23.309Z,7.93
2023-02-22T00:27:26.316Z,8.10
2023-02-22T00:30:32.043Z,7.87
2023-02-22T00:33:36.629Z,7.95
2023-02-22T00:36:44.485Z,9.90
2023-02-22T00:39:48.746Z,8.60
2023-02-22T00:42:52.617Z,7.17
2023-02-22T00:45:58.066Z,8.70
2023-02-22T00:49:01.269Z,7.78
2023-02-22T00:52:06.500Z,8.77
2023-02-22T00:55:16.156Z,8.67
2023-02-22T00:58:19.010Z,11.20
2023-02-22T01:01:24.170Z,8.73
2023-02-22T01:04:27.434Z,8.25
2023-02-22T01:07:30.474Z,7.62
2023-02-22T01:10:34.588Z,7.87
2023-02-22T01:13:37.454Z,8.30
2023-02-22T01:16:40.295Z,8.13
2023-02-22T01:19:43.825Z,8.35
2023-02-22T01:22:48.694Z,9.00
2023-02-22T01:25:51.433Z,9.50
2023-02-22T01:28:54.304Z,8.07
2023-02-22T01:31:59.528Z,7.62
2023-02-22T01:35:05.005Z,8.35
2023-02-22T01:38:10.247Z,8.75
2023-02-22T01:41:15.293Z,13.13
2023-02-22T01:44:28.150Z,11.33
2023-02-22T01:47:30.611Z,8.88
2023-02-22T01:50:39.316Z,10.48
2023-02-22T01:53:54.559Z,9.85
2023-02-22T01:57:08.486Z,10.70
2023-02-22T02:00:17.287Z,9.67
2023-02-22T02:03:28.069Z,10.23
2023-02-22T02:06:33.969Z,9.55
2023-02-22T02:09:40.608Z,9.18
2023-02-22T02:12:50.012Z,9.70
2023-02-22T02:15:55.280Z,8.97
2023-02-22T02:19:01.461Z,8.50
2023-02-22T02:22:25.989Z,11.18
2023-02-22T02:25:37.893Z,8.57
2023-02-22T02:28:51.735Z,8.00
2023-02-22T02:32:16.576Z,9.03
2023-02-22T02:35:40.165Z,10.02
2023-02-22T02:38:49.948Z,11.05
2023-02-22T02:41:56.605Z,9.27
2023-02-22T02:45:10.028Z,10.73
2023-02-22T02:48:16.804Z,10.73
2023-02-22T02:51:21.451Z,11.40
2023-02-22T02:54:26.942Z,10.82
2023-02-22T02:57:29.844Z,12.27
2023-02-22T03:00:43.042Z,11.73
2023-02-22T03:04:00.143Z,10.63
2023-02-22T03:07:07.085Z,9.27
2023-02-22T03:10:39.703Z,10.57
2023-02-22T03:14:07.144Z,11.12
2023-02-22T03:17:16.861Z,11.63
2023-02-22T03:20:31.965Z,10.03
2023-02-22T03:23:41.911Z,8.95
2023-02-22T03:27:18.175Z,10.40
2023-02-22T03:30:33.767Z,8.60
2023-02-22T03:33:42.758Z,10.70
2023-02-22T03:36:49.957Z,9.43
2023-02-22T03:40:01.945Z,9.05
2023-02-22T03:43:16.864Z,10.02
2023-02-22T03:46:22.257Z,10.27
2023-02-22T03:49:36.898Z,10.90
2023-02-22T03:52:41.866Z,10.53
2023-02-22T03:55:51.816Z,11.32
2023-02-22T03:58:55.831Z,10.05
2023-02-22T04:01:59.735Z,9.95
2023-02-22T04:05:03.094Z,10.03
2023-02-22T04:08:06.997Z,9.47
2023-02-22T04:11:11.222Z,12.95
2023-02-22T04:14:15.562Z,9.20
2023-02-22T04:17:19.589Z,10.15
2023-02-22T04:20:25.819Z,9.57
2023-02-22T04:23:29.462Z,11.73
2023-02-22T04:26:35.002Z,8.95
2023-02-22T04:29:38.536Z,9.85
2023-02-22T04:32:41.944Z,13.62
2023-02-22T04:35:46.226Z,8.47
2023-02-22T04:38:50.924Z,9.03
2023-02-22T04:41:56.159Z,9.40
2023-02-22T04:45:00.002Z,11.48
2023-02-22T04:48:04.979Z,11.55
2023-02-22T04:51:09.393Z,9.43
2023-02-22T04:54:17.589Z,10.27
2023-02-22T04:57:21.402Z,13.20
2023-02-22T05:00:28.893Z,9.75
2023-02-22T05:03:32.141Z,10.60
2023-02-22T05:06:37.062Z,9.73
2023-02-22T05:09:40.012Z,9.93
2023-02-22T05:12:45.649Z,11.20
2023-02-22T05:15:48.455Z,10.90
2023-02-22T05:18:52.213Z,9.48
2023-02-22T05:21:56.565Z,11.50
2023-02-22T05:24:59.635Z,11.87
2023-02-22T05:28:11.179Z,11.12
2023-02-22T05:31:16.276Z,9.52
2023-02-22T05:34:24.096Z,10.85
2023-02-22T05:37:28.918Z,10.53
2023-02-22T05:40:35.076Z,11.23
2023-02-22T05:43:40.045Z,12.55
2023-02-22T05:46:43.334Z,12.90
2023-02-22T05:49:55.356Z,12.73
2023-02-22T05:53:07.014Z,15.03
2023-02-22T05:56:15.961Z,14.47
2023-02-22T05:59:22.133Z,14.05
2023-02-22T06:02:25.745Z,14.05
2023-02-22T06:05:29.952Z,19.12
2023-02-22T06:08:37.204Z,15.00
2023-02-22T06:11:40.926Z,15.33
2023-02-22T06:14:46.247Z,21.35
2023-02-22T06:17:51.112Z,19.83
2023-02-22T06:20:55.021Z,18.50
2023-02-22T06:24:00.536Z,17.43
2023-02-22T06:27:05.995Z,18.03
2023-02-22T06:30:15.859Z,15.50
2023-02-22T06:33:21.090Z,13.00
2023-02-22T06:36:28.887Z,16.62
2023-02-22T06:39:34.384Z,13.90
2023-02-22T06:42:39.116Z,13.77
2023-02-22T06:45:44.062Z,14.25
2023-02-22T06:48:54.975Z,13.38
2023-02-22T06:52:01.319Z,12.23
2023-02-22T06:55:13.865Z,13.97
2023-02-22T06:58:19.204Z,12.07
2023-02-22T07:01:32.133Z,15.82
2023-02-22T07:04:37.083Z,13.75
2023-02-22T07:07:40.815Z,13.00
2023-02-22T07:10:45.294Z,13.00
2023-02-22T07:13:51.301Z,13.53
2023-02-22T07:16:55.181Z,13.90
2023-02-22T07:19:58.674Z,11.57
2023-02-22T07:23:05.929Z,12.27
2023-02-22T07:26:09.017Z,12.63
2023-02-22T07:29:15.125Z,17.17
2023-02-22T07:32:18.611Z,15.27
2023-02-22T07:35:25.862Z,15.77
2023-02-22T07:38:30.576Z,13.98
2023-02-22T07:41:40.409Z,11.87
2023-02-22T07:44:48.560Z,13.00
2023-02-22T07:47:52.956Z,11.82
2023-02-22T07:50:56.835Z,11.82
2023-02-22T07:54:01.686Z,12.55
2023-02-22T07:57:08.165Z,12.93
2023-02-22T08:00:19.057Z,11.97
2023-02-22T08:03:32.130Z,13.13
2023-02-22T08:06:37.065Z,14.32
2023-02-22T08:09:42.192Z,13.77
2023-02-22T08:12:58.417Z,16.33
2023-02-22T08:16:01.813Z,12.33
2023-02-22T08:19:04.810Z,12.50
2023-02-22T08:22:07.869Z,12.02
2023-02-22T08:25:12.610Z,10.65
2023-02-22T08:28:21.706Z,16.07
2023-02-22T08:31:25.628Z,11.03
2023-02-22T08:34:30.333Z,11.43
2023-02-22T08:37:33.669Z,12.70
2023-02-22T08:40:39.944Z,9.90
2023-02-22T08:43:45.293Z,14.50
2023-02-22T08:46:49.412Z,12.57
2023-02-22T08:49:52.471Z,13.60
2023-02-22T08:53:01.448Z,12.90
2023-02-22T08:56:07.244Z,14.50
2023-02-22T08:59:11.090Z,13.20
2023-02-22T09:02:20.525Z,10.57
2023-02-22T09:05:24.066Z,12.18
2023-02-22T09:08:27.992Z,12.13
2023-02-22T09:11:32.233Z,14.13
2023-02-22T09:14:35.183Z,12.53
2023-02-22T09:17:38.411Z,12.77
2023-02-22T09:20:42.117Z,13.13
2023-02-22T09:23:48.431Z,11.60
2023-02-22T09:27:03.084Z,12.88
2023-02-22T09:30:27.292Z,13.97
2023-02-22T09:33:32.096Z,13.00
2023-02-22T09:36:45.934Z,14.87
2023-02-22T09:39:51.458Z,14.18
2023-02-22T09:43:27.016Z,15.85
2023-02-22T09:46:35.457Z,22.83
2023-02-22T09:50:15.950Z,14.17
2023-02-22T09:53:41.951Z,17.85
2023-02-22T09:56:48.886Z,18.25
2023-02-22T10:00:02.094Z,17.35
2023-02-22T10:03:37.235Z,26.40
2023-02-22T10:06:54.307Z,22.40
2023-02-22T10:10:06.529Z,15.57
2023-02-22T10:13:29.003Z,22.08
2023-02-22T10:16:53.338Z,19.10
2023-02-22T10:20:27.010Z,16.83
2023-02-22T10:23:46.714Z,17.57
2023-02-22T10:26:51.282Z,17.27
2023-02-22T10:30:25.411Z,18.10
2023-02-22T10:34:03.268Z,18.30
2023-02-22T10:37:27.228Z,16.50
2023-02-22T10:40:34.675Z,17.20
2023-02-22T10:43:41.053Z,16.15
2023-02-22T10:46:48.213Z,19.52
2023-02-22T10:49:56.601Z,53.78
2023-02-22T10:53:06.906Z,21.03
2023-02-22T10:56:18.699Z,18.80
2023-02-22T10:59:39.490Z,17.35
2023-02-22T11:02:54.591Z,18.17
2023-02-22T11:06:23.036Z,20.88
2023-02-22T11:09:29.273Z,15.93
2023-02-22T11:12:40.666Z,18.73
2023-02-22T11:15:57.060Z,16.55
2023-02-22T11:19:14.397Z,18.52
2023-02-22T11:22:30.012Z,14.57
2023-02-22T11:25:38.516Z,15.97
2023-02-22T11:28:50.804Z,16.77
2023-02-22T11:31:55.639Z,15.00
2023-02-22T11:35:30.127Z,15.88
2023-02-22T11:38:39.204Z,16.52
2023-02-22T11:41:42.778Z,15.23
2023-02-22T11:44:47.118Z,14.83
2023-02-22T11:47:57.074Z,17.37
2023-02-22T11:51:14.569Z,18.70
2023-02-22T11:54:53.957Z,14.57
2023-02-22T11:58:27.987Z,15.67
2023-02-22T12:01:47.307Z,20.60
2023-02-22T12:05:19.192Z,17.15
2023-02-22T12:08:52.811Z,17.45
2023-02-22T12:12:25.274Z,14.63
2023-02-22T12:15:40.169Z,15.77
2023-02-22T12:18:46.988Z,15.43
2023-02-22T12:21:57.183Z,15.73
2023-02-22T12:25:09.606Z,19.10
2023-02-22T12:28:28.175Z,16.25
2023-02-22T12:31:38.472Z,16.00
2023-02-22T12:35:39.916Z,16.53
2023-02-22T12:38:50.333Z,17.52
2023-02-22T12:42:07.046Z,16.98
2023-02-22T12:45:25.088Z,16.25
2023-02-22T12:49:03.280Z,18.67
2023-02-22T12:52:33.965Z,17.03
2023-02-22T12:55:42.612Z,14.70
2023-02-22T12:59:03.664Z,16.20
2023-02-22T13:02:31.329Z,17.75
2023-02-22T13:05:39.945Z,16.23
2023-02-22T13:08:55.934Z,16.10
2023-02-22T13:12:13.963Z,17.60
2023-02-22T13:15:49.757Z,16.83
2023-02-22T13:19:14.336Z,14.93
2023-02-22T13:22:30.055Z,16.00
2023-02-22T13:25:50.979Z,17.07
2023-02-22T13:29:06.021Z,18.10
2023-02-22T13:32:40.787Z,17.17
2023-02-22T13:36:15.818Z,17.23
2023-02-22T13:39:46.969Z,17.07
2023-02-22T13:43:15.047Z,16.77
2023-02-22T13:46:47.010Z,19.40
2023-02-22T13:50:23.956Z,16.50
2023-02-22T13:53:37.139Z,21.02
2023-02-22T13:56:51.586Z,22.80
2023-02-22T14:00:43.079Z,19.40
2023-02-22T14:03:48.989Z,15.55
2023-02-22T14:07:10.813Z,16.90
2023-02-22T14:10:48.193Z,18.83
2023-02-22T14:13:53.803Z,21.03
2023-02-22T14:17:19.023Z,17.30
2023-02-22T14:20:40.858Z,20.52
2023-02-22T14:23:53.263Z,19.58
2023-02-22T14:27:05.162Z,17.77
2023-02-22T14:30:31.016Z,17.43
2023-02-22T14:34:07.001Z,18.50
2023-02-22T14:37:24.850Z,26.45
2023-02-22T14:40:44.892Z,24.65
2023-02-22T14:43:55.996Z,20.83
2023-02-22T14:47:05.977Z,22.30
2023-02-22T14:50:25.904Z,18.37
2023-02-22T14:53:45.265Z,21.37
2023-02-22T14:57:12.990Z,24.45
2023-02-22T15:00:50.124Z,26.35
2023-02-22T15:04:07.797Z,25.50
2023-02-22T15:07:30.909Z,24.03
2023-02-22T15:10:46.183Z,22.27
2023-02-22T15:13:54.266Z,25.52
2023-02-22T15:22:09.220Z,40.20
2023-02-22T15:25:26.439Z,75.17
2023-02-22T15:28:38.376Z,24.40
2023-02-22T15:31:48.244Z,336.05
2023-02-22T15:34:52.135Z,177.60
2023-02-22T15:38:11.012Z,132.93
2023-02-22T15:41:27.851Z,52.80
2023-02-22T15:44:42.991Z,41.53
2023-02-22T15:47:47.049Z,42.83
2023-02-22T15:51:28.061Z,33.80
2023-02-22T15:54:39.477Z,28.93
2023-02-22T15:57:43.431Z,26.17
2023-02-22T16:00:57.911Z,22.67
2023-02-22T16:04:05.969Z,46.78
2023-02-22T16:07:17.355Z,152.10
2023-02-22T16:10:28.992Z,810.83
2023-02-22T16:13:35.651Z,442.90
2023-02-22T16:16:45.028Z,231.50
2023-02-22T16:19:50.495Z,121.82
2023-02-22T16:23:03.882Z,57.25
2023-02-22T16:26:23.069Z,66.63
2023-02-22T16:29:28.997Z,110.83
2023-02-22T16:32:34.693Z,152.80
2023-02-22T16:35:52.484Z,193.05
2023-02-22T16:39:06.044Z,148.20
2023-02-22T16:42:24.945Z,271.13
2023-02-22T16:45:42.566Z,352.73
2023-02-22T16:49:03.527Z,155.20
2023-02-22T16:52:12.981Z,116.22
2023-02-22T16:55:22.952Z,89.43
2023-02-22T16:58:43.138Z,90.60
2023-02-22T17:01:58.863Z,76.70
2023-02-22T17:05:03.851Z,69.00
2023-02-22T17:08:22.886Z,72.00
2023-02-22T17:11:42.858Z,57.62
2023-02-22T17:14:54.988Z,70.53
2023-02-22T17:18:23.076Z,63.97
2023-02-22T17:21:27.895Z,54.75
2023-02-22T17:24:34.062Z,43.08
2023-02-22T17:27:46.282Z,51.45
2023-02-22T17:30:56.193Z,48.77
2023-02-22T17:34:15.957Z,48.67
2023-02-22T17:37:25.734Z,49.72
2023-02-22T17:40:36.900Z,53.78
2023-02-22T17:43:43.471Z,53.67
2023-02-22T17:46:53.174Z,53.17
2023-02-22T17:50:09.032Z,49.13
2023-02-22T17:53:25.013Z,51.10
2023-02-22T17:56:32.978Z,51.40
2023-02-22T17:59:45.908Z,52.97
2023-02-22T18:02:59.399Z,48.87
2023-02-22T18:06:03.461Z,48.73
2023-02-22T18:09:18.950Z,52.05
2023-02-22T18:12:22.654Z,53.60
2023-02-22T18:15:37.024Z,57.03
2023-02-22T18:18:46.956Z,62.30
2023-02-22T18:21:55.094Z,59.47
2023-02-22T18:25:13.828Z,65.25
2023-02-22T18:28:25.117Z,61.58
2023-02-22T18:31:37.009Z,70.07
2023-02-22T18:34:41.562Z,69.63
2023-02-22T18:37:52.167Z,67.00
2023-02-22T18:41:07.186Z,62.50
2023-02-22T18:44:27.236Z,66.65
2023-02-22T18:47:51.842Z,61.83
2023-02-22T18:51:06.053Z,61.80
2023-02-22T18:54:23.140Z,69.60
2023-02-22T18:57:37.976Z,52.90
2023-02-22T19:00:45.312Z,55.50
2023-02-22T19:03:50.239Z,56.47
2023-02-22T19:07:01.279Z,52.73
2023-02-22T19:10:12.158Z,46.97
2023-02-22T19:13:30.960Z,48.85
2023-02-22T19:16:52.871Z,45.40
2023-02-22T19:20:14.008Z,44.75
2023-02-22T19:23:39.868Z,37.87
2023-02-22T19:26:53.987Z,37.27
2023-02-22T19:30:17.345Z,33.88
2023-02-22T19:33:27.031Z,38.50
2023-02-22T19:36:36.038Z,34.55
2023-02-22T19:39:44.035Z,36.00
2023-02-22T19:43:09.865Z,31.37
2023-02-22T19:46:19.029Z,27.62
2023-02-22T19:49:34.947Z,24.85
2023-02-22T19:52:47.209Z,30.02
2023-02-22T19:55:55.949Z,31.40
2023-02-22T19:59:23.875Z,28.30
2023-02-22T20:02:42.992Z,26.73
2023-02-22T20:05:50.210Z,28.15
2023-02-22T20:08:59.640Z,28.35
2023-02-22T20:12:08.058Z,23.23
2023-02-22T20:15:19.879Z,22.63
2023-02-22T20:18:32.981Z,26.60
2023-02-22T20:21:42.964Z,28.42
2023-02-22T20:24:53.949Z,31.17
2023-02-22T20:28:06.926Z,28.50
2023-02-22T20:31:18.499Z,25.77
2023-02-22T20:34:33.634Z,24.50
2023-02-22T20:37:47.874Z,28.50
2023-02-22T20:41:14.103Z,37.60
2023-02-22T20:44:30.984Z,25.77
2023-02-22T20:47:41.923Z,25.40
2023-02-22T20:50:50.409Z,23.77
2023-02-22T20:54:02.573Z,25.45
2023-02-22T20:57:10.316Z,23.87
2023-02-22T21:00:19.213Z,25.10
2023-02-22T21:03:25.537Z,27.30
2023-02-22T21:06:50.165Z,21.52
2023-02-22T21:10:09.250Z,22.95
2023-02-22T21:13:26.123Z,21.25
2023-02-22T21:16:35.772Z,24.97
2023-02-22T21:19:41.101Z,23.33
2023-02-22T21:22:51.283Z,21.42
2023-02-22T21:25:58.253Z,22.40
2023-02-22T21:29:11.162Z,18.92
2023-02-22T21:32:15.483Z,23.17
2023-02-22T21:35:22.351Z,20.53
2023-02-22T21:38:27.121Z,21.17
2023-02-22T21:41:33.396Z,22.08
2023-02-22T21:44:41.735Z,23.05
2023-02-22T21:47:49.287Z,20.43
2023-02-22T21:50:54.526Z,22.10
2023-02-22T21:54:01.546Z,26.73
2023-02-22T21:57:10.146Z,25.85
2023-02-22T22:00:17.553Z,23.48
2023-02-22T22:03:24.921Z,24.10
2023-02-22T22:06:34.790Z,22.10
2023-02-22T22:09:42.902Z,25.08
2023-02-22T22:12:46.552Z,26.20
2023-02-22T22:15:50.442Z,20.58
2023-02-22T22:18:54.074Z,23.03
2023-02-22T22:21:58.483Z,37.10
2023-02-22T22:25:03.554Z,24.37
2023-02-22T22:28:08.964Z,23.92
2023-02-22T22:31:14.285Z,20.62
2023-02-22T22:34:19.503Z,21.13
2023-02-22T22:37:22.998Z,20.60
2023-02-22T22:40:31.820Z,20.85
2023-02-22T22:43:37.146Z,20.88
2023-02-22T22:46:41.026Z,19.98
2023-02-22T22:49:44.958Z,20.80
2023-02-22T22:52:49.186Z,18.60
2023-02-22T22:55:54.294Z,21.25
2023-02-22T22:58:59.154Z,23.95
2023-02-22T23:02:10.557Z,21.87
2023-02-22T23:05:19.019Z,20.47
2023-02-22T23:08:29.380Z,23.17
2023-02-22T23:11:35.542Z,22.87
2023-02-22T23:14:45.035Z,22.55
2023-02-22T23:17:48.801Z,18.55
2023-02-22T23:20:55.386Z,22.07
2023-02-22T23:23:58.764Z,25.53
2023-02-22T23:27:02.146Z,21.00
2023-02-22T23:30:07.279Z,18.25
2023-02-22T23:33:13.018Z,23.65
2023-02-22T23:36:20.113Z,19.03
2023-02-22T23:39:24.042Z,22.10
2023-02-22T23:42:28.128Z,20.83
2023-02-22T23:45:39.793Z,19.65
2023-02-22T23:48:48.137Z,19.23
2023-02-22T23:51:51.330Z,20.37
2023-02-22T23:54:54.367Z,19.37
2023-02-22T23:57:59.602Z,19.58
